Antler, North Dakota
Current Conditions -  °F | °C
As of 3:43 PM on Thursday 27 Nov 2014 (Local Time) from KMIB Reporting Station
Light Snow Light Snow  
Wind Chill: -4°   Ceiling: 1900
Heat Index: 12°   Visibility: 3mi
Dew Point: 10°   Wind: 16mph
Humidity: 92%   Direction: 130°SE
Pressure: 30"   Gusts: NA
Location:  48.97°N, 101.28°W
Report Text: KMIB 272143Z AUTO 13014KT 3SM -SN BR OVC019 M11/M12 A3000 RMK AO2 VIS 1/4 RWY29 CIG 011 RWY29
Loading
Personal Weather Stations






























Interactive Weather Map New forecast layout! Learn more

10-Day Weather Forecast

Advertisements
Track Severe Weather on mobile